Time;durP1;ratioP1;P1;durP2;ratioP2;P2;SDS_P1;SDS_P2;PMS_P1;PMS_P2;Temp;Humidity;BMP_temperature;BMP_pressure;BME280_temperature;BME280_humidity;BME280_pressure;Samples;Min_cycle;Max_cycle;Signal;HPM_P1;HPM_P2
2023/08/21 00:01:00;;;;;;;15.20;7.80;;;;;;;25.15;52.61;100544.38;125346;1108;104252;-81
2023/08/21 00:03:44;;;;;;;20.97;7.97;;;;;;;25.14;53.16;100545.28;125477;1108;102214;-81
2023/08/21 00:06:15;;;;;;;16.07;7.67;;;;;;;25.14;52.84;100547.09;125168;1109;104207;-82
2023/08/21 00:08:46;;;;;;;16.87;8.63;;;;;;;25.14;53.10;100547.09;125248;1108;102147;-82
2023/08/21 00:11:18;;;;;;;16.10;8.13;;;;;;;25.11;53.17;100546.23;125281;1106;101703;-83
2023/08/21 00:13:49;;;;;;;16.37;8.13;;;;;;;25.12;53.25;100537.27;125577;1108;102427;-82
2023/08/21 00:16:21;;;;;;;16.57;8.20;;;;;;;25.14;53.50;100536.36;125241;1109;102227;-83
2023/08/21 00:18:52;;;;;;;19.20;8.20;;;;;;;25.16;53.56;100538.06;125415;1108;101771;-83
2023/08/21 00:21:24;;;;;;;16.03;7.73;;;;;;;25.18;53.40;100538.93;125524;1108;101633;-84
2023/08/21 00:23:56;;;;;;;16.07;7.40;;;;;;;25.11;53.50;100543.54;125565;1109;102183;-83
2023/08/21 00:26:27;;;;;;;14.73;7.87;;;;;;;25.02;53.75;100537.52;125227;1109;103363;-83
2023/08/21 00:29:00;;;;;;;15.35;8.55;;;;;;;24.96;53.55;100541.22;125394;1100;101794;-80
2023/08/21 00:31:31;;;;;;;13.40;7.63;;;;;;;24.88;53.86;100546.76;125405;1106;101874;-84
2023/08/21 00:34:02;;;;;;;14.57;8.10;;;;;;;24.81;53.75;100541.56;125506;1105;104233;-82
2023/08/21 00:36:34;;;;;;;15.73;8.30;;;;;;;24.70;54.22;100540.02;125308;1108;104220;-82
2023/08/21 00:39:06;;;;;;;17.23;7.80;;;;;;;24.66;54.50;100540.99;124949;1108;104293;-84
2023/08/21 00:41:37;;;;;;;17.17;7.80;;;;;;;24.66;54.83;100542.80;125179;1106;103382;-85
2023/08/21 00:44:09;;;;;;;16.40;8.17;;;;;;;24.65;54.80;100552.66;125192;1109;102226;-84
2023/08/21 00:46:41;;;;;;;19.27;8.90;;;;;;;24.59;55.31;100547.43;124728;1108;101827;-84
2023/08/21 00:49:13;;;;;;;17.50;8.07;;;;;;;24.52;55.56;100548.43;125112;1109;102138;-84
2023/08/21 00:51:46;;;;;;;15.60;8.03;;;;;;;24.46;55.41;100546.75;125180;1106;102166;-84
2023/08/21 00:54:17;;;;;;;14.20;8.17;;;;;;;24.41;55.76;100554.89;124548;1109;101884;-83
2023/08/21 00:56:52;;;;;;;17.37;8.20;;;;;;;24.36;55.96;100540.70;124682;1105;104242;-84
2023/08/21 00:59:23;;;;;;;16.10;7.77;;;;;;;24.36;55.67;100539.83;125060;1109;101870;-84
2023/08/21 01:01:55;;;;;;;17.77;8.00;;;;;;;24.35;55.75;100538.92;125117;1108;101811;-83
2023/08/21 01:04:27;;;;;;;14.63;7.90;;;;;;;24.34;56.04;100537.19;125146;1108;101953;-83
2023/08/21 01:06:59;;;;;;;21.90;8.07;;;;;;;24.33;56.18;100539.89;124630;1108;104121;-84
2023/08/21 01:09:37;;;;;;;16.63;8.87;;;;;;;24.30;56.53;100537.27;125052;1109;102208;-83
2023/08/21 01:12:19;;;;;;;19.97;8.40;;;;;;;24.25;56.54;100542.73;125533;1109;101771;-84
2023/08/21 01:14:59;;;;;;;18.17;8.40;;;;;;;24.22;56.77;100540.11;125628;1109;101893;-83
2023/08/21 01:17:31;;;;;;;17.10;7.90;;;;;;;24.20;56.51;100536.59;125689;1109;102330;-83
2023/08/21 01:20:03;;;;;;;19.20;8.60;;;;;;;24.16;56.69;100541.10;124950;1108;104239;-84
2023/08/21 01:22:40;;;;;;;14.83;8.03;;;;;;;24.11;56.86;100548.36;124678;1108;102048;-83
2023/08/21 01:25:12;;;;;;;14.53;8.00;;;;;;;24.05;57.41;100545.80;124650;1109;101814;-84
2023/08/21 01:27:49;;;;;;;19.23;8.03;;;;;;;24.00;57.52;100550.38;124702;1109;104262;-82
2023/08/21 01:30:20;;;;;;;17.10;8.80;;;;;;;23.96;57.77;100545.97;124842;1108;102118;-82
2023/08/21 01:33:05;;;;;;;16.73;8.33;;;;;;;23.90;57.79;100554.12;124664;1109;102346;-84
2023/08/21 01:35:38;;;;;;;14.90;7.70;;;;;;;23.86;58.06;100553.31;124586;1108;104265;-83
2023/08/21 01:38:11;;;;;;;18.30;8.10;;;;;;;23.84;58.06;100550.66;124614;1108;102077;-83
2023/08/21 01:40:42;;;;;;;21.07;7.97;;;;;;;23.84;58.08;100549.75;124546;1109;101880;-83
2023/08/21 01:43:14;;;;;;;13.97;8.23;;;;;;;23.80;58.21;100545.35;124576;1109;102090;-83
2023/08/21 01:45:45;;;;;;;15.77;7.90;;;;;;;23.77;58.19;100551.64;124994;1108;102202;-83
2023/08/21 01:48:16;;;;;;;14.57;8.00;;;;;;;23.72;58.29;100550.84;125103;1106;101778;-83
2023/08/21 01:50:50;;;;;;;18.80;8.70;;;;;;;23.68;58.31;100551.80;124617;1109;102035;-83
2023/08/21 01:53:21;;;;;;;12.53;8.13;;;;;;;23.65;58.42;100555.44;125028;1107;101833;-82
2023/08/21 01:55:53;;;;;;;14.10;8.07;;;;;;;23.62;58.37;100566.20;125327;1109;104210;-82
2023/08/21 01:58:24;;;;;;;17.77;8.27;;;;;;;23.63;58.55;100565.27;125435;1108;102080;-83
2023/08/21 02:00:55;;;;;;;15.03;7.97;;;;;;;23.63;58.38;100553.69;125474;1109;102252;-82
2023/08/21 02:03:30;;;;;;;15.57;8.30;;;;;;;23.63;58.86;100569.75;125197;1108;101795;-84
2023/08/21 02:06:01;;;;;;;13.45;8.00;;;;;;;23.58;58.93;100568.95;125374;1109;101850;-83
2023/08/21 02:08:36;;;;;;;17.53;8.50;;;;;;;23.52;59.02;100567.25;125388;1109;102594;-84
2023/08/21 02:11:07;;;;;;;16.47;8.50;;;;;;;23.47;59.01;100569.14;125048;1108;104188;-81
2023/08/21 02:13:40;;;;;;;16.20;8.10;;;;;;;23.44;59.34;100571.86;124605;1108;102098;-84
2023/08/21 02:16:11;;;;;;;17.97;8.47;;;;;;;23.42;59.27;100574.56;124590;1109;104274;-82
2023/08/21 02:18:43;;;;;;;19.80;8.23;;;;;;;23.39;59.50;100566.58;124568;1109;101904;-83
2023/08/21 02:21:14;;;;;;;14.63;8.47;;;;;;;23.34;59.42;100571.10;124573;1109;104307;-82
2023/08/21 02:23:45;;;;;;;17.00;8.20;;;;;;;23.32;59.73;100571.12;124796;1108;102034;-80
2023/08/21 02:26:19;;;;;;;14.93;8.27;;;;;;;23.29;59.80;100568.50;124947;1108;104188;-82
2023/08/21 02:28:50;;;;;;;15.33;8.17;;;;;;;23.26;59.96;100576.58;125017;1108;102220;-81
2023/08/21 02:31:22;;;;;;;15.73;8.73;;;;;;;23.21;59.72;100566.87;125025;1108;104121;-81
2023/08/21 02:33:55;;;;;;;17.12;8.45;;;;;;;23.19;59.95;100574.92;124961;1109;102028;-83
2023/08/21 02:36:26;;;;;;;14.63;7.90;;;;;;;23.17;59.95;100571.39;125026;1108;102080;-82
2023/08/21 02:38:58;;;;;;;15.50;8.00;;;;;;;23.15;59.91;100578.54;125313;1109;101765;-84
2023/08/21 02:41:29;;;;;;;16.00;8.07;;;;;;;23.15;59.98;100575.86;124835;1107;102833;-84
2023/08/21 02:44:00;;;;;;;16.10;8.60;;;;;;;23.14;60.39;100579.47;125048;1107;102051;-83
2023/08/21 02:46:33;;;;;;;18.05;8.45;;;;;;;23.14;60.43;100583.02;125254;1106;102038;-83
2023/08/21 02:49:04;;;;;;;17.93;8.23;;;;;;;23.13;60.29;100581.23;124697;1109;101839;-83
2023/08/21 02:51:35;;;;;;;15.97;8.70;;;;;;;23.13;60.14;100585.72;124770;1108;104188;-82
2023/08/21 02:54:09;;;;;;;15.97;8.43;;;;;;;23.11;60.44;100584.87;124768;1109;103062;-81
2023/08/21 02:56:40;;;;;;;17.00;8.40;;;;;;;23.11;60.64;100582.19;124728;1109;104099;-82
2023/08/21 02:59:12;;;;;;;16.13;8.73;;;;;;;23.11;60.14;100583.06;124997;1107;101953;-84
2023/08/21 03:01:43;;;;;;;14.70;8.10;;;;;;;23.11;60.06;100583.06;125021;1109;102091;-82
2023/08/21 03:04:14;;;;;;;14.03;8.50;;;;;;;23.10;60.39;100588.44;124966;1109;101860;-82
2023/08/21 03:06:48;;;;;;;16.77;9.03;;;;;;;23.07;60.79;100592.00;124550;1108;104195;-82
2023/08/21 03:09:21;;;;;;;13.72;8.20;;;;;;;23.06;60.72;100592.02;124678;1108;104307;-82
2023/08/21 03:11:52;;;;;;;16.67;8.20;;;;;;;23.06;60.35;100597.38;124496;1107;102141;-82
2023/08/21 03:14:24;;;;;;;16.10;8.93;;;;;;;23.06;60.64;100586.67;124380;1108;104777;-82
2023/08/21 03:16:55;;;;;;;16.93;8.70;;;;;;;23.07;60.32;100592.00;124510;1109;102116;-82
2023/08/21 03:19:26;;;;;;;18.37;9.03;;;;;;;23.07;60.41;100593.80;124417;1109;104288;-83
2023/08/21 03:21:58;;;;;;;18.00;8.90;;;;;;;23.09;60.44;100592.02;124498;1109;101956;-82
2023/08/21 03:24:29;;;;;;;15.67;8.47;;;;;;;23.07;60.76;100585.77;124394;1108;101961;-83
2023/08/21 03:27:02;;;;;;;18.43;8.73;;;;;;;23.09;60.46;100589.34;124389;1109;101870;-81
2023/08/21 03:29:33;;;;;;;19.43;8.73;;;;;;;23.11;60.65;100587.55;124383;1109;101964;-80
2023/08/21 03:32:05;;;;;;;18.70;8.27;;;;;;;23.13;60.41;100585.72;124466;1109;102050;-81
2023/08/21 03:34:36;;;;;;;14.70;8.83;;;;;;;23.13;60.55;100588.39;124501;1106;104222;-81
2023/08/21 03:37:08;;;;;;;18.33;9.10;;;;;;;23.14;60.56;100590.17;124986;1108;102259;-81
2023/08/21 03:39:40;;;;;;;17.23;8.80;;;;;;;23.15;60.71;100589.25;124560;1109;102470;-82
2023/08/21 03:42:17;;;;;;;16.10;8.97;;;;;;;23.13;60.53;100591.94;124498;1109;104275;-81
2023/08/21 03:44:50;;;;;;;16.37;8.70;;;;;;;23.11;60.70;100593.77;124380;1108;104274;-80
2023/08/21 03:47:21;;;;;;;18.47;9.03;;;;;;;23.10;60.70;100589.31;124529;1109;104338;-81
2023/08/21 03:49:57;;;;;;;21.20;8.87;;;;;;;23.07;60.62;100591.12;124469;1109;104191;-81
2023/08/21 03:52:29;;;;;;;16.57;8.80;;;;;;;23.05;61.06;100591.15;124374;1109;102075;-80
2023/08/21 03:55:01;;;;;;;17.73;8.83;;;;;;;23.07;61.00;100589.32;124323;1108;101954;-78
2023/08/21 03:57:32;;;;;;;19.73;9.30;;;;;;;23.06;61.16;100582.22;124296;1109;101928;-80
2023/08/21 04:00:06;;;;;;;19.60;9.43;;;;;;;23.08;61.30;100584.88;124315;1108;104236;-81
2023/08/21 04:02:46;;;;;;;17.97;8.73;;;;;;;23.07;60.91;100583.97;124518;1108;102563;-81
2023/08/21 04:05:18;;;;;;;15.37;8.93;;;;;;;23.10;61.12;100594.66;124770;1109;104271;-82
2023/08/21 04:07:49;;;;;;;19.17;9.20;;;;;;;23.12;61.36;100586.61;124528;1109;104239;-80
2023/08/21 04:10:20;;;;;;;17.47;9.17;;;;;;;23.14;61.14;100590.17;124437;1109;101898;-82
2023/08/21 04:12:51;;;;;;;16.43;8.73;;;;;;;23.16;61.24;100588.35;124523;1108;104150;-80
2023/08/21 04:15:23;;;;;;;18.73;9.73;;;;;;;23.17;61.60;100591.90;124175;1108;102264;-80
2023/08/21 04:17:55;;;;;;;24.07;9.20;;;;;;;23.16;61.42;100591.03;124218;1108;104354;-80
2023/08/21 04:20:26;;;;;;;18.43;9.93;;;;;;;23.18;61.50;100591.00;124323;1109;101855;-80
2023/08/21 04:22:57;;;;;;;19.40;10.03;;;;;;;23.20;61.69;100600.76;124533;1108;104227;-81
2023/08/21 04:25:29;;;;;;;19.70;10.30;;;;;;;23.25;61.72;100601.59;125119;1108;104240;-80
2023/08/21 04:28:01;;;;;;;19.40;10.03;;;;;;;23.29;61.38;100603.30;125149;1109;102014;-83
2023/08/21 04:30:33;;;;;;;18.17;9.10;;;;;;;23.32;61.57;100605.93;125201;1108;104313;-82
2023/08/21 04:33:05;;;;;;;17.20;9.77;;;;;;;23.35;61.35;100596.98;124502;1109;102258;-82
2023/08/21 04:35:40;;;;;;;16.80;9.50;;;;;;;23.39;61.35;100608.52;124449;1109;102224;-81
2023/08/21 04:38:12;;;;;;;22.10;10.03;;;;;;;23.43;61.43;100604.89;124474;1105;102023;-80
2023/08/21 04:40:43;;;;;;;17.30;9.30;;;;;;;23.48;61.41;100611.95;124465;1109;104194;-81
2023/08/21 04:43:15;;;;;;;18.73;9.07;;;;;;;23.51;61.25;100609.23;124843;1109;104246;-79
2023/08/21 04:45:52;;;;;;;20.10;9.23;;;;;;;23.54;61.07;100608.27;124819;1108;101820;-84
2023/08/21 04:48:24;;;;;;;18.27;8.67;;;;;;;23.58;61.32;100618.04;125204;1109;102131;-84
2023/08/21 04:50:55;;;;;;;17.97;9.70;;;;;;;23.63;61.55;100613.48;125172;1108;101839;-83
2023/08/21 04:53:29;;;;;;;19.13;9.20;;;;;;;23.70;61.16;100608.93;124305;1109;104341;-82
2023/08/21 04:56:03;;;;;;;18.57;9.23;;;;;;;23.77;61.57;100615.94;124855;1109;101959;-80
2023/08/21 04:58:39;;;;;;;15.83;8.70;;;;;;;23.82;61.02;100622.09;125322;1107;104188;-82
2023/08/21 05:01:12;;;;;;;21.10;9.17;;;;;;;23.86;61.01;100614.94;125863;1102;101639;-82
2023/08/21 05:03:47;;;;;;;21.37;9.73;;;;;;;23.92;60.71;100627.33;124881;1109;102826;-82
2023/08/21 05:06:20;;;;;;;17.07;9.43;;;;;;;23.99;60.88;100607.56;124106;1109;103279;-81
2023/08/21 05:08:50;;;;;;;;;;;;;;;24.04;60.66;100609.25;124744;1105;101913;-82
2023/08/21 05:11:22;;;;;;;17.00;9.10;;;;;;;24.09;60.53;100614.53;125356;1108;103852;-81
2023/08/21 05:13:53;;;;;;;17.77;8.90;;;;;;;24.14;60.25;100614.45;125249;1109;104259;-82
2023/08/21 05:16:26;;;;;;;17.83;9.60;;;;;;;24.19;60.29;100620.59;124909;1109;104326;-86
2023/08/21 05:18:58;;;;;;;18.10;9.20;;;;;;;24.25;60.06;100617.80;125154;1105;104291;-83
2023/08/21 05:21:31;;;;;;;19.20;9.53;;;;;;;24.32;60.06;100631.97;124385;1109;104383;-87
2023/08/21 05:24:04;;;;;;;19.98;9.60;;;;;;;24.38;59.54;100621.99;124972;1109;101907;-84
2023/08/21 05:26:38;;;;;;;26.00;10.03;;;;;;;24.46;59.45;100629.02;125029;1109;104149;-83
2023/08/21 05:29:10;;;;;;;19.50;9.23;;;;;;;24.53;59.39;100622.63;125374;1107;104241;-82
2023/08/21 05:31:43;;;;;;;19.00;9.47;;;;;;;24.61;59.20;100614.46;124319;1109;104208;-82
2023/08/21 05:34:17;;;;;;;17.17;9.33;;;;;;;24.68;59.20;100616.08;125102;1108;102418;-81
2023/08/21 05:36:50;;;;;;;21.77;9.47;;;;;;;24.79;58.52;100624.78;125203;1109;101972;-83
2023/08/21 05:39:24;;;;;;;15.70;8.60;;;;;;;24.83;58.31;100621.13;125731;1108;102056;-87
2023/08/21 05:41:59;;;;;;;15.43;8.90;;;;;;;24.92;58.18;100620.06;124917;1108;104280;-78
2023/08/21 05:44:35;;;;;;;22.63;9.43;;;;;;;25.02;58.24;100621.60;125084;1106;102006;-81
2023/08/21 05:47:13;;;;;;;20.37;9.70;;;;;;;25.11;58.25;100623.20;125265;1109;104192;-80
2023/08/21 05:49:48;;;;;;;20.20;9.23;;;;;;;25.17;58.01;100627.57;125465;1108;101798;-83
2023/08/21 05:52:36;;;;;;;19.77;10.00;;;;;;;25.24;57.87;100626.48;124987;1109;104306;-81
2023/08/21 05:55:09;;;;;;;18.73;9.03;;;;;;;25.32;58.17;100637.09;125452;1108;104191;-79
2023/08/21 05:57:42;;;;;;;;;;;;;;;25.40;56.78;100630.63;124478;1109;102055;-74
2023/08/21 06:00:20;;;;;;;18.00;9.30;;;;;;;25.51;57.24;100626.78;124121;1109;104296;-81
2023/08/21 06:02:52;;;;;;;17.83;9.47;;;;;;;25.59;57.04;100632.88;124886;1109;102200;-76
2023/08/21 06:05:48;;;;;;;19.70;9.60;;;;;;;25.69;56.40;100630.84;125373;1109;104274;-83
2023/08/21 06:12:13;;;;;;;18.97;9.70;;;;;;;25.88;56.12;100633.94;125717;1105;102348;-84
2023/08/21 06:15:14;;;;;;;23.27;9.47;;;;;;;26.01;56.19;100619.30;126538;1104;101466;-83
2023/08/21 06:18:08;;;;;;;19.87;10.03;;;;;;;26.13;55.84;100629.73;125707;1105;101946;-83
2023/08/21 06:20:55;;;;;;;20.73;9.70;;;;;;;26.26;55.81;100627.59;125591;1104;101831;-81
2023/08/21 06:23:34;;;;;;;23.80;9.80;;;;;;;26.42;55.48;100628.03;124917;1108;102185;-80
2023/08/21 06:26:15;;;;;;;20.30;9.73;;;;;;;26.53;54.75;100633.98;124304;1109;102161;-79
2023/08/21 06:28:57;;;;;;;20.27;9.50;;;;;;;26.66;54.94;100628.28;124978;1106;101855;-83
2023/08/21 06:31:36;;;;;;;20.00;9.47;;;;;;;26.77;54.54;100634.27;125083;1105;101937;-83
2023/08/21 06:34:23;;;;;;;23.57;9.83;;;;;;;26.90;54.49;100632.95;125393;1105;104198;-83
2023/08/21 06:36:57;;;;;;;23.98;9.68;;;;;;;27.05;54.29;100638.80;125608;1105;101802;-77
2023/08/21 06:39:43;;;;;;;22.77;9.20;;;;;;;27.17;54.18;100633.03;125620;1105;118615;-81
2023/08/21 06:42:26;;;;;;;18.83;9.73;;;;;;;27.33;53.57;100633.48;125349;1104;104073;-81
2023/08/21 06:45:12;;;;;;;22.97;9.50;;;;;;;27.50;53.63;100632.91;125773;1105;101709;-79
2023/08/21 06:48:08;;;;;;;;;;;;;;;;;;;;;
2023/08/21 06:51:08;;;;;;;22.30;9.30;;;;;;;27.84;53.57;100639.89;126067;1105;101658;-80
2023/08/21 06:53:52;;;;;;;20.93;9.97;;;;;;;28.02;53.17;100634.82;125265;1109;104287;-80
2023/08/21 06:56:33;;;;;;;22.32;9.93;;;;;;;28.20;53.05;100633.31;124845;1105;102009;-81
2023/08/21 06:59:16;;;;;;;19.97;10.50;;;;;;;28.38;52.76;100624.56;125175;1105;104254;-78
2023/08/21 07:01:48;;;;;;;23.43;9.87;;;;;;;28.54;52.77;100630.27;124940;1105;104185;-85
2023/08/21 07:04:37;;;;;;;16.97;9.13;;;;;;;28.69;52.23;100627.03;125670;1105;101730;-81
2023/08/21 07:07:33;;;;;;;;;;;;;;;;;;;;;
2023/08/21 07:10:22;;;;;;;18.73;10.07;;;;;;;29.05;51.46;100618.44;125322;1105;102093;-79
2023/08/21 07:12:56;;;;;;;17.67;8.93;;;;;;;29.34;50.80;100619.15;125777;1104;102132;-78
2023/08/21 07:16:03;;;;;;;20.10;9.13;;;;;;;29.61;49.39;100620.75;125832;1105;104230;-84
2023/08/21 07:18:58;;;;;;;16.80;8.60;;;;;;;29.89;48.74;100618.69;125616;1105;102333;-76
2023/08/21 07:21:46;;;;;;;17.07;8.90;;;;;;;30.09;48.09;100615.12;125159;1104;101975;-77
2023/08/21 07:24:20;;;;;;;19.63;8.97;;;;;;;30.38;47.04;100622.88;126122;1104;104120;-81
2023/08/21 07:27:20;;;;;;;17.83;9.23;;;;;;;30.61;46.74;100613.75;125883;1105;101772;-79
2023/08/21 07:30:37;;;;;;;17.80;8.60;;;;;;;30.82;45.88;100611.85;125338;1106;104182;-82
2023/08/21 07:33:20;;;;;;;17.67;8.30;;;;;;;31.03;46.53;100618.12;125957;1105;101824;-82
2023/08/21 07:36:16;;;;;;;;;;;;;;;;;;;;;
2023/08/21 07:38:56;;;;;;;19.83;8.93;;;;;;;31.44;45.71;100603.50;125015;1105;101832;-83
2023/08/21 07:41:37;;;;;;;20.40;8.93;;;;;;;31.64;45.27;100607.96;125767;1104;104197;-79
2023/08/21 07:44:14;;;;;;;19.50;8.63;;;;;;;31.82;44.55;100604.31;126046;1104;104105;-83
2023/08/21 07:47:12;;;;;;;;;;;;;;;;;;;;;
2023/08/21 07:49:53;;;;;;;14.87;8.10;;;;;;;32.29;43.39;100600.09;126175;1105;101976;-83
2023/08/21 07:52:43;;;;;;;17.20;8.00;;;;;;;32.45;42.52;100591.98;125532;1108;101780;-79
2023/08/21 07:55:50;;;;;;;;;;;;;;;;;;;;;
2023/08/21 07:58:58;;;;;;;16.17;7.73;;;;;;;32.73;41.18;100585.94;125008;1105;104127;-84
2023/08/21 08:02:00;;;;;;;16.17;8.43;;;;;;;32.95;41.44;100592.89;125943;1104;102060;-82
2023/08/21 08:04:36;;;;;;;16.30;7.73;;;;;;;33.06;41.04;100590.42;126112;1104;102124;-87
2023/08/21 08:07:35;;;;;;;11.53;7.13;;;;;;;33.18;39.96;100590.70;126665;1105;101548;-81
2023/08/21 08:10:15;;;;;;;13.93;7.80;;;;;;;33.35;39.99;100593.36;126104;1103;104076;-82
2023/08/21 08:12:47;;;;;;;14.47;7.07;;;;;;;33.43;40.58;100591.05;126784;1104;101216;-85
2023/08/21 08:15:48;;;;;;;16.87;7.77;;;;;;;33.48;39.11;100588.06;126028;1103;102326;-81
2023/08/21 08:19:06;;;;;;;14.33;7.55;;;;;;;33.63;39.39;100583.57;125566;1108;102525;-83
2023/08/21 08:21:59;;;;;;;13.80;7.30;;;;;;;33.69;38.37;100588.64;125889;1104;101956;-83
2023/08/21 08:24:43;;;;;;;15.53;6.83;;;;;;;33.72;37.95;100580.30;125532;1105;101795;-84
2023/08/21 08:27:18;;;;;;;13.57;7.40;;;;;;;33.80;38.22;100583.46;126027;1104;101710;-81
2023/08/21 08:30:03;;;;;;;10.13;6.87;;;;;;;33.80;37.89;100580.73;125625;1105;101880;-86
2023/08/21 08:32:44;;;;;;;12.37;7.07;;;;;;;33.88;37.79;100580.27;126290;1104;117863;-83
2023/08/21 08:35:31;;;;;;;12.10;7.23;;;;;;;33.85;37.28;100578.60;124798;1105;101999;-85
2023/08/21 08:38:19;;;;;;;15.87;7.20;;;;;;;33.97;37.16;100574.27;123857;1105;104233;-81
2023/08/21 08:41:00;;;;;;;15.07;7.27;;;;;;;34.04;37.49;100570.18;125697;1104;101736;-80
2023/08/21 08:43:56;;;;;;;;;;;;;;;;;;;;;
2023/08/21 08:46:37;;;;;;;11.10;7.30;;;;;;;34.12;37.10;100575.16;126286;1104;102392;-86
2023/08/21 08:49:36;;;;;;;;;;;;;;;;;;;;;
2023/08/21 08:52:08;;;;;;;15.37;7.70;;;;;;;34.16;36.48;100559.52;125790;1108;101785;-86
2023/08/21 08:54:48;;;;;;;11.73;6.90;;;;;;;34.22;36.38;100564.59;125529;1105;101944;-85
2023/08/21 08:58:00;;;;;;;13.20;7.30;;;;;;;34.32;36.06;100554.88;125569;1104;104251;-87
2023/08/21 09:00:52;;;;;;;13.43;6.90;;;;;;;34.31;35.91;100564.02;125100;1105;104230;-81
2023/08/21 09:03:37;;;;;;;10.60;6.77;;;;;;;34.28;35.37;100556.04;125676;1105;106948;-86
2023/08/21 09:06:31;;;;;;;12.07;6.73;;;;;;;34.29;35.69;100555.08;125729;1105;101798;-82
2023/08/21 09:09:07;;;;;;;11.63;7.03;;;;;;;34.12;35.40;100561.54;125123;1105;104226;-84
2023/08/21 09:12:01;;;;;;;;;;;;;;;;;;;;;
2023/08/21 09:15:07;;;;;;;12.00;6.53;;;;;;;33.87;35.10;100543.13;125093;1105;101956;-82
2023/08/21 09:17:42;;;;;;;11.75;6.42;;;;;;;33.99;35.13;100545.10;125162;1104;104192;-81
2023/08/21 09:20:15;;;;;;;8.97;6.07;;;;;;;34.12;35.18;100542.48;125433;1104;104108;-86
2023/08/21 09:22:58;;;;;;;13.60;6.70;;;;;;;34.10;35.18;100540.84;125065;1104;104670;-80
2023/08/21 09:25:36;;;;;;;11.17;6.57;;;;;;;34.17;35.00;100531.30;125089;1104;101770;-87
2023/08/21 09:28:32;;;;;;;8.83;6.07;;;;;;;34.34;35.46;100542.03;126044;1104;102055;-84
2023/08/21 09:31:06;;;;;;;12.47;6.37;;;;;;;34.49;35.03;100537.47;126108;1104;101955;-82
2023/08/21 09:34:04;;;;;;;11.30;6.77;;;;;;;34.49;34.61;100536.61;125555;1105;101730;-82
2023/08/21 09:37:07;;;;;;;10.73;6.80;;;;;;;34.33;34.44;100536.69;125775;1105;101642;-84
2023/08/21 09:39:51;;;;;;;13.50;6.47;;;;;;;34.28;34.37;100528.80;125413;1106;102108;-81
2023/08/21 09:42:23;;;;;;;10.00;6.30;;;;;;;34.11;34.14;100534.41;125747;1105;102061;-82
2023/08/21 09:45:08;;;;;;;9.98;5.90;;;;;;;34.02;33.94;100538.60;125586;1105;102354;-84
2023/08/21 09:47:42;;;;;;;11.47;6.63;;;;;;;34.00;33.93;100530.53;126128;1104;101987;-81
2023/08/21 09:50:26;;;;;;;8.63;6.30;;;;;;;34.09;33.82;100533.64;126331;1105;101699;-81
2023/08/21 09:53:00;;;;;;;10.40;5.93;;;;;;;34.18;33.40;100527.63;125806;1105;101704;-81
2023/08/21 09:55:53;;;;;;;;;;;;;;;;;;;;;
2023/08/21 09:58:36;;;;;;;9.50;5.97;;;;;;;34.25;33.49;100522.69;126050;1105;104252;-90
2023/08/21 10:01:13;;;;;;;10.03;5.90;;;;;;;34.30;33.40;100520.53;126178;1105;101619;-87
2023/08/21 10:03:51;;;;;;;10.00;5.70;;;;;;;34.19;33.17;100529.39;126498;1104;101485;-83
2023/08/21 10:06:53;;;;;;;12.33;5.90;;;;;;;34.14;33.11;100524.23;126167;1105;101698;-82
2023/08/21 10:09:52;;;;;;;11.23;5.93;;;;;;;34.24;33.55;100521.82;126723;1104;101934;-82
2023/08/21 10:12:26;;;;;;;12.03;6.03;;;;;;;34.42;33.49;100521.62;125693;1105;102097;-83
2023/08/21 10:15:08;;;;;;;13.50;6.23;;;;;;;34.49;33.48;100526.58;125683;1104;101856;-79
2023/08/21 10:17:48;;;;;;;15.53;6.17;;;;;;;34.66;33.49;100520.03;125451;1105;103564;-83
2023/08/21 10:20:28;;;;;;;10.07;5.83;;;;;;;34.83;33.36;100518.07;125801;1105;104117;-88
2023/08/21 10:23:31;;;;;;;13.57;6.30;;;;;;;35.00;33.51;100519.68;124854;1105;104184;-80
2023/08/21 10:26:19;;;;;;;10.77;6.20;;;;;;;35.20;32.85;100512.89;124852;1104;104553;-82
2023/08/21 10:29:06;;;;;;;8.40;5.80;;;;;;;35.25;32.71;100510.75;125280;1104;104195;-81
2023/08/21 10:32:24;;;;;;;10.93;6.00;;;;;;;35.28;32.47;100507.85;126325;1104;101741;-84
2023/08/21 10:35:15;;;;;;;14.03;6.23;;;;;;;35.31;32.23;100506.75;125711;1108;101846;-85
2023/08/21 10:38:21;;;;;;;13.23;6.10;;;;;;;35.26;31.93;100502.50;125500;1109;104171;-79
2023/08/21 10:41:13;;;;;;;10.73;6.20;;;;;;;35.22;31.87;100511.83;126516;1104;101940;-84
2023/08/21 10:43:56;;;;;;;10.23;6.30;;;;;;;35.06;31.75;100511.98;126544;1105;101534;-83
2023/08/21 10:47:14;;;;;;;11.07;6.50;;;;;;;34.97;32.23;100496.25;126532;1104;101624;-82
2023/08/21 10:49:53;;;;;;;11.90;6.33;;;;;;;34.76;32.38;100503.12;126338;1105;101926;-81
2023/08/21 10:56:01;;;;;;;12.37;6.63;;;;;;;34.70;32.18;100491.63;126158;1105;107205;-80
2023/08/21 10:58:51;;;;;;;14.57;6.60;;;;;;;34.77;31.83;100485.77;125239;1105;104105;-80
2023/08/21 11:01:31;;;;;;;10.67;6.20;;;;;;;34.88;31.88;100486.82;126062;1105;101788;-79
2023/08/21 11:04:12;;;;;;;8.67;6.20;;;;;;;35.09;31.92;100487.25;125015;1105;102092;-80
2023/08/21 11:06:59;;;;;;;9.90;6.53;;;;;;;35.23;31.86;100480.86;125899;1104;102071;-81
2023/08/21 11:10:07;;;;;;;11.13;5.77;;;;;;;35.34;31.50;100490.17;125490;1104;102043;-82
2023/08/21 11:13:19;;;;;;;10.53;6.80;;;;;;;35.30;31.57;100484.06;125861;1104;102104;-85
2023/08/21 11:16:33;;;;;;;15.63;6.50;;;;;;;35.34;31.15;100484.72;125701;1105;104162;-86
2023/08/21 11:19:33;;;;;;;11.90;6.17;;;;;;;35.36;30.94;100480.02;125567;1106;104223;-79
2023/08/21 11:22:22;;;;;;;12.60;6.60;;;;;;;35.39;31.00;100472.52;125484;1104;102485;-81
2023/08/21 11:25:03;;;;;;;12.97;6.23;;;;;;;35.46;31.05;100464.78;125067;1105;104254;-84
2023/08/21 11:27:39;;;;;;;10.93;6.30;;;;;;;35.53;31.14;100473.40;124962;1105;102429;-86
2023/08/21 11:30:34;;;;;;;10.73;6.43;;;;;;;35.62;31.20;100468.20;125274;1105;103417;-83
2023/08/21 11:33:15;;;;;;;10.97;6.57;;;;;;;35.69;30.42;100474.09;125737;1105;101818;-85
2023/08/21 11:35:58;;;;;;;10.03;6.47;;;;;;;35.72;30.39;100456.64;125111;1105;102169;-84
2023/08/21 11:38:37;;;;;;;11.43;6.77;;;;;;;35.79;30.60;100456.12;124906;1105;104294;-79
2023/08/21 11:41:25;;;;;;;;;;;;;;;;;;;;;
2023/08/21 11:44:09;;;;;;;10.43;6.30;;;;;;;35.69;30.61;100446.80;125816;1105;101635;-80
2023/08/21 11:47:13;;;;;;;;;;;;;;;;;;;;;
2023/08/21 11:49:55;;;;;;;14.63;6.73;;;;;;;35.69;30.57;100440.48;124672;1105;104213;-80
2023/08/21 11:52:35;;;;;;;10.70;6.20;;;;;;;35.73;30.77;100439.26;125156;1104;104102;-77
2023/08/21 11:55:18;;;;;;;9.47;5.90;;;;;;;35.84;30.85;100443.98;124608;1105;104309;-78
2023/08/21 11:58:27;;;;;;;;;;;;;;;;;;;;;
2023/08/21 12:01:53;;;;;;;11.23;5.97;;;;;;;35.97;30.21;100447.59;124867;1105;104214;-83
2023/08/21 12:04:29;;;;;;;11.00;6.33;;;;;;;35.86;30.11;100444.73;124533;1105;104211;-85
2023/08/21 12:07:09;;;;;;;11.83;6.23;;;;;;;35.66;30.28;100446.15;125804;1105;101969;-86
2023/08/21 12:09:53;;;;;;;8.57;6.17;;;;;;;35.48;30.33;100445.58;124580;1105;102325;-77
2023/08/21 12:12:28;;;;;;;13.23;6.67;;;;;;;35.37;30.48;100441.73;124339;1105;104254;-78
2023/08/21 12:15:05;;;;;;;14.47;6.37;;;;;;;35.28;30.70;100442.40;125547;1105;101910;-83
2023/08/21 12:18:02;;;;;;;13.20;6.40;;;;;;;35.30;30.58;100437.70;125730;1104;117877;-78
2023/08/21 12:21:01;;;;;;;12.97;6.20;;;;;;;35.38;30.79;100432.58;124455;1105;102100;-82
2023/08/21 12:24:18;;;;;;;8.83;6.17;;;;;;;35.28;31.29;100445.98;125794;1105;104066;-80